createdAt,value
2023-03-30T00:01:21.563Z,99172.75
2023-03-30T00:03:50.421Z,99170.97
2023-03-30T00:06:23.368Z,99175.34
2023-03-30T00:08:57.632Z,99173.56
2023-03-30T00:11:27.815Z,99167.53
2023-03-30T00:13:57.674Z,99156.28
2023-03-30T00:16:26.349Z,99150.25
2023-03-30T00:18:55.662Z,99151.97
2023-03-30T00:21:24.400Z,99148.50
2023-03-30T00:23:52.944Z,99149.38
2023-03-30T00:26:22.352Z,99131.19
2023-03-30T00:28:52.103Z,99143.28
2023-03-30T00:31:22.350Z,99144.16
2023-03-30T00:33:51.136Z,99138.09
2023-03-30T00:36:22.459Z,99126.00
2023-03-30T00:38:51.006Z,99117.31
2023-03-30T00:41:19.347Z,99123.38
2023-03-30T00:43:57.954Z,99121.63
2023-03-30T00:46:28.537Z,99130.28
2023-03-30T00:49:00.017Z,99130.28
2023-03-30T00:51:29.944Z,99117.31
2023-03-30T00:54:04.509Z,99114.72
2023-03-30T00:56:33.118Z,99109.50
2023-03-30T00:59:03.713Z,99112.94
2023-03-30T01:01:39.022Z,99100.00
2023-03-30T01:04:09.842Z,99098.25
2023-03-30T01:06:40.809Z,99095.66
2023-03-30T01:09:10.805Z,99094.81
2023-03-30T01:11:39.841Z,99089.63
2023-03-30T01:14:11.073Z,99090.44
2023-03-30T01:16:47.266Z,99080.94
2023-03-30T01:20:12.882Z,99071.38
2023-03-30T01:23:18.717Z,99063.56
2023-03-30T01:26:20.860Z,99066.97
2023-03-30T01:28:57.525Z,99066.09
2023-03-30T01:32:01.139Z,99074.69
2023-03-30T01:34:51.834Z,99077.22
2023-03-30T01:38:04.407Z,99072.03
2023-03-30T01:40:40.308Z,99065.13
2023-03-30T01:43:16.683Z,99069.44
2023-03-30T01:45:49.235Z,99060.81
2023-03-30T01:48:26.132Z,99064.25
2023-03-30T01:50:57.295Z,99065.13
2023-03-30T01:53:34.259Z,99061.66
2023-03-30T01:56:10.066Z,99059.09
2023-03-30T01:58:44.982Z,99066.94
2023-03-30T02:01:17.483Z,99066.97
2023-03-30T02:03:50.945Z,99064.38
2023-03-30T02:06:25.826Z,99069.63
2023-03-30T02:08:59.321Z,99066.19
2023-03-30T02:11:32.172Z,99064.50
2023-03-30T02:14:03.395Z,99060.16
2023-03-30T02:16:38.998Z,99058.53
2023-03-30T02:19:07.866Z,99058.56
2023-03-30T02:21:36.723Z,99056.88
2023-03-30T02:24:08.643Z,99044.81
2023-03-30T02:26:39.044Z,99042.25
2023-03-30T02:29:07.421Z,99041.41
2023-03-30T02:31:36.288Z,99030.25
2023-03-30T02:34:15.842Z,99030.31
2023-03-30T02:37:21.812Z,99032.94
2023-03-30T02:40:12.731Z,99023.47
2023-03-30T02:42:55.341Z,99022.66
2023-03-30T02:45:42.347Z,99017.50
2023-03-30T02:48:27.617Z,99020.97
2023-03-30T02:51:06.612Z,99008.91
2023-03-30T02:54:02.484Z,99000.25
2023-03-30T02:56:59.556Z,99001.19
2023-03-30T02:59:37.650Z,98995.09
2023-03-30T03:02:12.225Z,98990.78
2023-03-30T03:04:43.657Z,98987.34
2023-03-30T03:07:42.615Z,98986.47
2023-03-30T03:10:12.988Z,98978.66
2023-03-30T03:12:42.242Z,98990.88
2023-03-30T03:15:13.991Z,98984.78
2023-03-30T03:17:58.636Z,98991.75
2023-03-30T03:20:30.591Z,98988.31
2023-03-30T03:23:00.109Z,98976.16
2023-03-30T03:25:30.147Z,98975.28
2023-03-30T03:28:02.231Z,98978.75
2023-03-30T03:30:38.766Z,98980.47
2023-03-30T03:33:12.314Z,98988.31
2023-03-30T03:35:45.813Z,98984.78
2023-03-30T03:38:15.432Z,98998.69
2023-03-30T03:40:44.510Z,98993.50
2023-03-30T03:43:12.974Z,98995.22
2023-03-30T03:45:43.217Z,98994.38
2023-03-30T03:48:11.823Z,98993.56
2023-03-30T03:51:00.270Z,98998.75
2023-03-30T03:53:32.983Z,98998.78
2023-03-30T03:56:06.588Z,98995.34
2023-03-30T03:58:36.529Z,98990.22
2023-03-30T04:01:07.226Z,98987.63
2023-03-30T04:03:35.967Z,98974.63
2023-03-30T04:06:04.437Z,98969.47
2023-03-30T04:08:34.904Z,98967.78
2023-03-30T04:11:22.394Z,98966.94
2023-03-30T04:14:29.502Z,98972.13
2023-03-30T04:17:23.829Z,98973.88
2023-03-30T04:19:59.056Z,98986.03
2023-03-30T04:23:02.992Z,98968.69
2023-03-30T04:25:52.029Z,98963.50
2023-03-30T04:28:40.256Z,98953.13
2023-03-30T04:31:35.926Z,98963.50
2023-03-30T04:34:31.361Z,98944.44
2023-03-30T04:37:24.087Z,98952.22
2023-03-30T04:40:13.111Z,98940.97
2023-03-30T04:43:08.357Z,98940.16
2023-03-30T04:45:51.131Z,98945.41
2023-03-30T04:48:38.973Z,98933.31
2023-03-30T04:51:12.025Z,98931.63
2023-03-30T04:53:59.342Z,98935.09
2023-03-30T04:56:36.557Z,98939.47
2023-03-30T04:59:37.276Z,98932.50
2023-03-30T05:02:34.813Z,98939.47
2023-03-30T05:05:19.241Z,98938.63
2023-03-30T05:07:58.265Z,98939.50
2023-03-30T05:10:49.715Z,98961.16
2023-03-30T05:13:47.297Z,98948.97
2023-03-30T05:16:28.484Z,98949.81
2023-03-30T05:19:15.949Z,98950.69
2023-03-30T05:22:02.659Z,98941.19
2023-03-30T05:24:53.669Z,98944.63
2023-03-30T05:27:47.703Z,98946.31
2023-03-30T05:30:36.256Z,98949.81
2023-03-30T05:33:24.514Z,98935.06
2023-03-30T05:36:19.357Z,98942.91
2023-03-30T05:39:10.481Z,98935.97
2023-03-30T05:42:02.735Z,98946.38
2023-03-30T05:44:54.977Z,98955.91
2023-03-30T05:47:43.367Z,98953.31
2023-03-30T05:50:23.807Z,98952.47
2023-03-30T05:52:59.747Z,98952.47
2023-03-30T05:55:54.457Z,98956.81
2023-03-30T05:58:54.348Z,98961.16
2023-03-30T06:01:52.139Z,98962.88
2023-03-30T06:04:20.656Z,98968.06
2023-03-30T06:06:50.827Z,98965.47
2023-03-30T06:09:19.807Z,98979.38
2023-03-30T06:11:48.418Z,98981.97
2023-03-30T06:14:26.043Z,98968.13
2023-03-30T06:17:19.756Z,98971.59
2023-03-30T06:19:48.324Z,98974.19
2023-03-30T06:22:16.950Z,98966.38
2023-03-30T06:25:16.278Z,98966.38
2023-03-30T06:27:45.234Z,98968.94
2023-03-30T06:30:16.943Z,98969.03
2023-03-30T06:32:49.504Z,98966.38
2023-03-30T06:35:38.572Z,98969.81
2023-03-30T06:38:07.527Z,98968.97
2023-03-30T06:40:37.034Z,98965.47
2023-03-30T06:43:05.701Z,98966.38
2023-03-30T06:45:38.315Z,98962.94
2023-03-30T06:48:07.600Z,98964.66
2023-03-30T06:50:40.670Z,98966.41
2023-03-30T06:53:24.873Z,98970.75
2023-03-30T06:55:56.890Z,98971.63
2023-03-30T06:58:28.333Z,98964.66
2023-03-30T07:00:59.024Z,98975.09
2023-03-30T07:03:46.495Z,98973.34
2023-03-30T07:06:24.334Z,98978.59
2023-03-30T07:08:53.801Z,98975.16
2023-03-30T07:11:26.526Z,98976.94
2023-03-30T07:13:56.298Z,98971.81
2023-03-30T07:16:27.079Z,98979.69
2023-03-30T07:18:55.842Z,98963.22
2023-03-30T07:21:24.652Z,98974.56
2023-03-30T07:23:53.049Z,98976.31
2023-03-30T07:26:37.851Z,98987.63
2023-03-30T07:29:09.540Z,98979.81
2023-03-30T07:31:42.630Z,98985.91
2023-03-30T07:34:13.391Z,98985.13
2023-03-30T07:36:49.689Z,99008.59
2023-03-30T07:39:18.656Z,98988.63
2023-03-30T07:41:49.248Z,98996.41
2023-03-30T07:44:17.980Z,98993.81
2023-03-30T07:46:48.827Z,99004.28
2023-03-30T07:49:24.740Z,98998.19
2023-03-30T07:51:54.921Z,98995.59
2023-03-30T07:54:27.651Z,99004.22
2023-03-30T07:57:19.294Z,99007.63
2023-03-30T07:59:48.020Z,99006.84
2023-03-30T08:02:32.191Z,99005.94
2023-03-30T08:05:01.315Z,99003.28
2023-03-30T08:07:41.441Z,99011.09
2023-03-30T08:10:15.757Z,99005.03
2023-03-30T08:12:44.116Z,99012.84
2023-03-30T08:15:13.330Z,99012.91
2023-03-30T08:17:43.208Z,99025.09
2023-03-30T08:20:12.329Z,99014.72
2023-03-30T08:22:40.995Z,99017.34
2023-03-30T08:25:11.183Z,99024.28
2023-03-30T08:27:39.744Z,99037.28
2023-03-30T08:30:10.622Z,99021.72
2023-03-30T08:32:39.222Z,99039.03
2023-03-30T08:35:11.563Z,99048.59
2023-03-30T08:37:39.989Z,99049.44
2023-03-30T08:40:12.865Z,99052.94
2023-03-30T08:43:02.972Z,99045.97
2023-03-30T08:45:41.032Z,99057.25
2023-03-30T08:48:18.604Z,99048.59
2023-03-30T08:50:57.460Z,99048.59
2023-03-30T08:53:26.464Z,99039.06
2023-03-30T08:56:00.982Z,99047.81
2023-03-30T08:58:41.234Z,99048.69
2023-03-30T09:01:19.317Z,99029.59
2023-03-30T09:04:03.610Z,99040.06
2023-03-30T09:06:47.169Z,99040.06
2023-03-30T09:09:20.163Z,99049.63
2023-03-30T09:11:55.222Z,99051.34
2023-03-30T09:14:34.076Z,99054.91
2023-03-30T09:17:09.949Z,99059.31
2023-03-30T09:19:49.616Z,99058.50
2023-03-30T09:22:22.051Z,99062.06
2023-03-30T09:24:51.602Z,99049.16
2023-03-30T09:27:29.058Z,99059.66
2023-03-30T09:30:06.653Z,99054.56
2023-03-30T09:32:43.141Z,99058.13
2023-03-30T09:35:16.672Z,99060.81
2023-03-30T09:37:46.729Z,99068.66
2023-03-30T09:40:38.059Z,99063.47
2023-03-30T09:43:16.132Z,99082.59
2023-03-30T09:45:46.653Z,99075.63
2023-03-30T09:48:17.916Z,99063.47
2023-03-30T09:50:48.224Z,99067.84
2023-03-30T09:53:26.027Z,99066.16
2023-03-30T09:56:02.875Z,99073.16
2023-03-30T09:58:34.076Z,99069.69
2023-03-30T10:01:09.013Z,99086.19
2023-03-30T10:03:38.659Z,99081.78
2023-03-30T10:06:09.587Z,99107.84
2023-03-30T10:08:50.522Z,99107.81
2023-03-30T10:11:22.998Z,99113.78
2023-03-30T10:13:52.502Z,99117.16
2023-03-30T10:16:27.654Z,99117.94
2023-03-30T10:19:00.750Z,99114.34
2023-03-30T10:21:33.605Z,99112.50
2023-03-30T10:24:09.539Z,99124.59
2023-03-30T10:26:39.254Z,99134.06
2023-03-30T10:29:13.096Z,99143.53
2023-03-30T10:31:46.396Z,99152.13
2023-03-30T10:34:19.065Z,99155.47
2023-03-30T10:36:52.537Z,99146.66
2023-03-30T10:39:27.065Z,99146.56
2023-03-30T10:41:57.925Z,99143.03
2023-03-30T10:44:32.235Z,99144.81
2023-03-30T10:47:22.769Z,99138.69
2023-03-30T10:50:05.880Z,99139.44
2023-03-30T10:52:52.192Z,99148.97
2023-03-30T10:55:35.580Z,99133.34
2023-03-30T10:58:21.294Z,99126.41
2023-03-30T11:01:00.781Z,99126.50
2023-03-30T11:03:32.863Z,99123.94
2023-03-30T11:06:08.239Z,99123.16
2023-03-30T11:08:41.926Z,99137.16
2023-03-30T11:11:18.482Z,99133.75
2023-03-30T11:13:51.947Z,99137.31
2023-03-30T11:16:26.783Z,99144.38
2023-03-30T11:19:00.666Z,99139.22
2023-03-30T11:21:37.250Z,99146.25
2023-03-30T11:24:14.084Z,99132.47
2023-03-30T11:26:51.167Z,99136.00
2023-03-30T11:29:32.509Z,99135.28
2023-03-30T11:32:17.791Z,99127.59
2023-03-30T11:34:58.917Z,99129.41
2023-03-30T11:37:34.935Z,99139.06
2023-03-30T11:40:15.409Z,99134.78
2023-03-30T11:42:46.037Z,99143.59
2023-03-30T11:45:40.728Z,99131.56
2023-03-30T11:48:23.560Z,99121.22
2023-03-30T11:51:12.083Z,99115.22
2023-03-30T11:53:53.471Z,99123.09
2023-03-30T11:56:33.009Z,99119.66
2023-03-30T11:59:07.960Z,99121.47
2023-03-30T12:01:55.908Z,99126.72
2023-03-30T12:04:30.203Z,99124.97
2023-03-30T12:07:02.232Z,99118.91
2023-03-30T12:09:35.912Z,99118.09
2023-03-30T12:12:11.943Z,99124.22
2023-03-30T12:15:03.846Z,99125.13
2023-03-30T12:17:44.758Z,99126.91
2023-03-30T12:20:28.910Z,99120.81
2023-03-30T12:23:05.108Z,99126.00
2023-03-30T12:25:46.205Z,99118.16
2023-03-30T12:28:17.015Z,99106.03
2023-03-30T12:30:57.394Z,99106.84
2023-03-30T12:33:29.650Z,99105.94
2023-03-30T12:36:01.467Z,99098.97
2023-03-30T12:38:39.281Z,99097.22
2023-03-30T12:41:15.699Z,99105.00
2023-03-30T12:44:14.974Z,99119.75
2023-03-30T12:47:00.240Z,99110.19
2023-03-30T12:49:43.677Z,99118.81
2023-03-30T12:52:18.026Z,99137.03
2023-03-30T12:55:23.037Z,99152.66
2023-03-30T12:58:07.723Z,99157.03
2023-03-30T13:01:13.645Z,99156.06
2023-03-30T13:03:50.331Z,99153.41
2023-03-30T13:06:27.369Z,99160.31
2023-03-30T13:08:58.587Z,99161.13
2023-03-30T13:11:27.110Z,99150.66
2023-03-30T13:13:58.713Z,99164.53
2023-03-30T13:17:10.611Z,99167.88
2023-03-30T13:19:51.151Z,99179.16
2023-03-30T13:22:28.631Z,99178.19
2023-03-30T13:25:02.121Z,99190.28
2023-03-30T13:27:35.636Z,99198.91
2023-03-30T13:30:11.860Z,99192.78
2023-03-30T13:33:10.322Z,99183.09
2023-03-30T13:35:57.520Z,99175.22
2023-03-30T13:38:53.848Z,99149.03
2023-03-30T13:41:36.715Z,99157.69
2023-03-30T13:44:43.644Z,99150.78
2023-03-30T13:47:59.072Z,99140.38
2023-03-30T13:50:31.284Z,99139.59
2023-03-30T13:53:04.992Z,99136.34
2023-03-30T13:55:40.018Z,99130.38
2023-03-30T13:58:15.146Z,99123.53
2023-03-30T14:00:49.734Z,99124.59
2023-03-30T14:03:35.618Z,99131.63
2023-03-30T14:06:08.489Z,99115.16
2023-03-30T14:08:40.557Z,99125.66
2023-03-30T14:11:17.222Z,99130.09
2023-03-30T14:13:48.243Z,99129.28
2023-03-30T14:16:23.118Z,99124.97
2023-03-30T14:18:51.960Z,99118.09
2023-03-30T14:21:24.222Z,99115.53
2023-03-30T14:23:56.042Z,99117.31
2023-03-30T14:26:26.587Z,99118.25
2023-03-30T14:29:02.671Z,99125.25
2023-03-30T14:31:40.083Z,99114.91
2023-03-30T14:34:27.943Z,99126.19
2023-03-30T14:36:56.966Z,99121.91
2023-03-30T14:39:27.184Z,99106.28
2023-03-30T14:41:56.362Z,99106.28
2023-03-30T14:44:25.454Z,99115.03
2023-03-30T14:46:56.819Z,99117.69
2023-03-30T14:49:28.821Z,99115.09
2023-03-30T14:52:04.500Z,99107.31
2023-03-30T14:54:35.247Z,99103.81
2023-03-30T14:57:07.928Z,99105.53
2023-03-30T14:59:52.952Z,99098.56
2023-03-30T15:02:24.838Z,99111.56
2023-03-30T15:04:54.124Z,99108.94
2023-03-30T15:07:22.689Z,99115.00
2023-03-30T15:09:58.341Z,99120.19
2023-03-30T15:12:29.914Z,99120.97
2023-03-30T15:15:02.734Z,99117.44
2023-03-30T15:17:33.009Z,99120.88
2023-03-30T15:20:06.247Z,99114.66
2023-03-30T15:22:38.226Z,99130.19
2023-03-30T15:25:13.261Z,99114.47
2023-03-30T15:27:45.991Z,99118.72
2023-03-30T15:30:27.918Z,99108.22
2023-03-30T15:32:58.165Z,99100.28
2023-03-30T15:35:31.403Z,99095.06
2023-03-30T15:38:02.603Z,99109.00
2023-03-30T15:40:39.388Z,99105.50
2023-03-30T15:43:20.175Z,99115.06
2023-03-30T15:45:52.695Z,99122.03
2023-03-30T15:48:25.605Z,99122.03
2023-03-30T15:51:06.718Z,99122.88
2023-03-30T15:53:42.364Z,99139.38
2023-03-30T15:56:22.927Z,99130.56
2023-03-30T15:58:52.438Z,99150.44
2023-03-30T16:01:23.289Z,99170.31
2023-03-30T16:03:56.388Z,99177.91
2023-03-30T16:06:24.944Z,99179.47
2023-03-30T16:08:53.386Z,99170.69
2023-03-30T16:11:23.978Z,99158.50
2023-03-30T16:13:55.313Z,99161.06
2023-03-30T16:16:24.114Z,99145.41
2023-03-30T16:18:52.560Z,99154.09
2023-03-30T16:21:24.557Z,99145.41
2023-03-30T16:23:53.232Z,99138.47
2023-03-30T16:26:24.000Z,99128.94
2023-03-30T16:28:54.329Z,99132.41
2023-03-30T16:31:24.857Z,99134.16
2023-03-30T16:33:53.446Z,99123.72
2023-03-30T16:36:25.500Z,99124.66
2023-03-30T16:38:54.054Z,99117.72
2023-03-30T16:41:24.404Z,99123.84
2023-03-30T16:43:52.786Z,99131.69
2023-03-30T16:46:22.350Z,99127.41
2023-03-30T16:48:52.052Z,99131.81
2023-03-30T16:51:20.547Z,99136.13
2023-03-30T16:53:48.833Z,99136.97
2023-03-30T16:56:19.396Z,99136.97
2023-03-30T16:58:49.320Z,99143.91
2023-03-30T17:01:18.735Z,99149.94
2023-03-30T17:03:47.740Z,99150.78
2023-03-30T17:06:17.022Z,99151.63
2023-03-30T17:08:46.718Z,99142.91
2023-03-30T17:11:16.277Z,99135.94
2023-03-30T17:13:46.937Z,99127.25
2023-03-30T17:16:17.038Z,99131.56
2023-03-30T17:18:45.822Z,99136.75
2023-03-30T17:21:16.535Z,99135.81
2023-03-30T17:23:47.910Z,99148.00
2023-03-30T17:26:17.660Z,99143.63
2023-03-30T17:28:46.491Z,99147.13
2023-03-30T17:31:20.623Z,99156.63
2023-03-30T17:33:50.299Z,99157.41
2023-03-30T17:36:21.749Z,99158.25
2023-03-30T17:38:51.629Z,99166.00
2023-03-30T17:41:21.248Z,99166.00
2023-03-30T17:43:50.090Z,99172.00
2023-03-30T17:46:21.502Z,99166.75
2023-03-30T17:48:51.266Z,99176.22
2023-03-30T17:51:20.609Z,99181.41
2023-03-30T17:53:49.366Z,99181.34
2023-03-30T17:56:17.816Z,99183.06
2023-03-30T17:58:46.396Z,99185.59
2023-03-30T18:01:18.015Z,99186.47
2023-03-30T18:03:47.904Z,99186.34
2023-03-30T18:06:19.374Z,99188.94
2023-03-30T18:08:48.611Z,99191.47
2023-03-30T18:11:17.136Z,99180.16
2023-03-30T18:13:45.586Z,99187.03
2023-03-30T18:16:15.088Z,99190.47
2023-03-30T18:18:43.823Z,99189.59
2023-03-30T18:21:13.605Z,99185.25
2023-03-30T18:23:42.426Z,99181.78
2023-03-30T18:26:14.139Z,99183.59
2023-03-30T18:28:44.333Z,99181.81
2023-03-30T18:31:13.336Z,99189.69
2023-03-30T18:33:41.805Z,99189.69
2023-03-30T18:36:14.731Z,99182.88
2023-03-30T18:38:44.218Z,99189.84
2023-03-30T18:41:13.953Z,99189.00
2023-03-30T18:43:42.332Z,99186.41
2023-03-30T18:46:12.969Z,99188.16
2023-03-30T18:48:44.030Z,99185.56
2023-03-30T18:51:14.254Z,99189.03
2023-03-30T18:53:42.613Z,99193.34
2023-03-30T18:56:13.934Z,99195.97
2023-03-30T18:58:44.669Z,99187.25
2023-03-30T19:01:15.959Z,99176.81
2023-03-30T19:03:45.838Z,99181.16
2023-03-30T19:06:23.174Z,99173.38
2023-03-30T19:08:51.931Z,99178.53
2023-03-30T19:11:27.294Z,99177.66
2023-03-30T19:13:55.874Z,99175.00
2023-03-30T19:16:24.357Z,99178.44
2023-03-30T19:18:55.763Z,99180.19
2023-03-30T19:21:25.728Z,99179.31
2023-03-30T19:23:56.477Z,99173.22
2023-03-30T19:26:24.861Z,99184.50
2023-03-30T19:28:53.310Z,99174.94
2023-03-30T19:31:22.342Z,99169.75
2023-03-30T19:33:50.808Z,99183.59
2023-03-30T19:36:19.257Z,99171.41
2023-03-30T19:38:49.525Z,99166.22
2023-03-30T19:41:17.929Z,99163.56
2023-03-30T19:43:50.091Z,99166.13
2023-03-30T19:46:18.896Z,99164.41
2023-03-30T19:48:47.406Z,99166.09
2023-03-30T19:51:16.709Z,99160.84
2023-03-30T19:53:45.213Z,99160.84
2023-03-30T19:56:16.054Z,99163.44
2023-03-30T19:58:44.512Z,99153.03
2023-03-30T20:01:13.549Z,99158.25
2023-03-30T20:03:42.033Z,99156.53
2023-03-30T20:06:12.476Z,99140.03
2023-03-30T20:08:41.450Z,99151.28
2023-03-30T20:11:11.380Z,99146.91
2023-03-30T20:13:45.760Z,99150.34
2023-03-30T20:16:21.254Z,99148.59
2023-03-30T20:18:54.650Z,99142.56
2023-03-30T20:21:25.877Z,99136.50
2023-03-30T20:23:55.987Z,99135.66
2023-03-30T20:26:27.026Z,99140.03
2023-03-30T20:28:58.035Z,99133.94
2023-03-30T20:31:26.905Z,99137.38
2023-03-30T20:33:56.018Z,99129.63
2023-03-30T20:36:25.818Z,99132.22
2023-03-30T20:38:55.326Z,99124.41
2023-03-30T20:41:24.933Z,99127.00
2023-03-30T20:43:57.216Z,99132.16
2023-03-30T20:46:34.935Z,99131.22
2023-03-30T20:49:03.800Z,99125.97
2023-03-30T20:51:32.576Z,99135.50
2023-03-30T20:54:01.203Z,99131.19
2023-03-30T20:56:29.856Z,99124.22
2023-03-30T20:58:59.376Z,99125.94
2023-03-30T21:01:30.294Z,99131.09
2023-03-30T21:04:00.975Z,99131.94
2023-03-30T21:06:31.986Z,99131.09
2023-03-30T21:09:03.722Z,99132.81
2023-03-30T21:11:35.265Z,99124.09
2023-03-30T21:14:03.829Z,99131.91
2023-03-30T21:16:34.757Z,99121.50
2023-03-30T21:19:03.476Z,99113.69
2023-03-30T21:21:33.799Z,99111.03
2023-03-30T21:24:03.212Z,99120.53
2023-03-30T21:26:31.982Z,99112.69
2023-03-30T21:29:00.517Z,99116.94
2023-03-30T21:31:29.071Z,99116.06
2023-03-30T21:34:00.025Z,99107.41
2023-03-30T21:36:29.109Z,99103.91
2023-03-30T21:38:59.420Z,99099.53
2023-03-30T21:41:28.889Z,99092.59
2023-03-30T21:43:57.329Z,99090.81
2023-03-30T21:46:27.511Z,99102.06
2023-03-30T21:48:56.085Z,99097.69
2023-03-30T21:51:28.872Z,99095.09
2023-03-30T21:53:58.932Z,99081.22
2023-03-30T21:56:30.376Z,99087.28
2023-03-30T21:58:59.225Z,99077.66
2023-03-30T22:01:28.091Z,99074.16
2023-03-30T22:03:57.391Z,99081.06
2023-03-30T22:06:27.951Z,99071.53
2023-03-30T22:08:56.579Z,99068.00
2023-03-30T22:11:27.471Z,99070.59
2023-03-30T22:13:56.180Z,99068.88
2023-03-30T22:16:28.220Z,99063.69
2023-03-30T22:18:57.606Z,99064.53
2023-03-30T22:21:33.914Z,99060.22
2023-03-30T22:24:03.191Z,99057.56
2023-03-30T22:26:32.144Z,99055.81
2023-03-30T22:29:01.331Z,99057.56
2023-03-30T22:31:29.796Z,99050.59
2023-03-30T22:33:58.349Z,99050.59
2023-03-30T22:36:32.254Z,99042.81
2023-03-30T22:39:03.973Z,99042.78
2023-03-30T22:41:32.466Z,99035.84
2023-03-30T22:44:01.128Z,99036.66
2023-03-30T22:46:29.786Z,99033.97
2023-03-30T22:48:58.315Z,99037.44
2023-03-30T22:51:28.275Z,99033.13
2023-03-30T22:53:59.332Z,99028.75
2023-03-30T22:56:29.123Z,99019.25
2023-03-30T22:58:58.300Z,99027.94
2023-03-30T23:01:29.193Z,99020.13
2023-03-30T23:03:59.609Z,99016.66
2023-03-30T23:06:29.575Z,99007.97
2023-03-30T23:08:58.597Z,99002.78
2023-03-30T23:11:28.989Z,99004.53
2023-03-30T23:13:57.383Z,99000.19
2023-03-30T23:16:27.651Z,99002.81
2023-03-30T23:18:56.138Z,98994.97
2023-03-30T23:21:24.625Z,98987.19
2023-03-30T23:23:54.460Z,98981.09
2023-03-30T23:26:23.172Z,98985.44
2023-03-30T23:28:51.471Z,98984.53
2023-03-30T23:31:19.994Z,98980.19
2023-03-30T23:33:48.495Z,98976.72
2023-03-30T23:36:19.093Z,98972.38
2023-03-30T23:38:49.251Z,98968.03
2023-03-30T23:41:22.064Z,98972.38
2023-03-30T23:43:51.497Z,98968.91
2023-03-30T23:46:20.642Z,98964.56
2023-03-30T23:48:49.091Z,98965.34
2023-03-30T23:51:17.476Z,98953.25
2023-03-30T23:53:47.260Z,98948.03
2023-03-30T23:56:17.525Z,98952.34
2023-03-30T23:58:48.540Z,98937.59
